WJA584 CYYC-CYHM
Flight info
| Callsign | WJA584 |
|---|---|
| Flight time | N/A |
| Altitude | 35000 |
| Route | STAMP2/35L LOMLO Q961 DAPOP DCT MUTUR Q908 FELTN DCT SSM DCT MUSIT DCT TETOS TETOS1 |
| Aircraft | B738/M-SDE2E3FGHIRWXY/LB1 |
Departure
| Time | N/A |
|---|---|
| Airport | Calgary International Airport (CYYC) |
Arrival
| Time | 2026-04-15 04:19 |
|---|---|
| Airport | John C. Munro Hamilton International Airport (CYHM) |
| Time | Latitude | Longitude | Altitude | Speed | Heading |
|---|---|---|---|---|---|
| 2026-04-15 02:32 | 50.09025 | -94.97957 | 34885 ft | 489 kts | 101° |
| 2026-04-15 02:33 | 50.08733 | -94.95189 | 34884 ft | 489 kts | 101° |
| 2026-04-15 02:33 | 50.07624 | -94.84728 | 34895 ft | 490 kts | 101° |
| 2026-04-15 02:34 | 50.06504 | -94.74266 | 34882 ft | 490 kts | 101° |
| 2026-04-15 02:34 | 50.05374 | -94.63802 | 34892 ft | 490 kts | 101° |
| 2026-04-15 02:35 | 50.04242 | -94.53406 | 34874 ft | 490 kts | 101° |
| 2026-04-15 02:35 | 50.03094 | -94.42954 | 34876 ft | 490 kts | 101° |
| 2026-04-15 02:36 | 50.01936 | -94.32504 | 34868 ft | 490 kts | 101° |
| 2026-04-15 02:36 | 50.00768 | -94.22058 | 34869 ft | 490 kts | 101° |
| 2026-04-15 02:37 | 49.99590 | -94.11605 | 34864 ft | 490 kts | 102° |
| 2026-04-15 02:37 | 49.98403 | -94.01167 | 34867 ft | 491 kts | 102° |
| 2026-04-15 02:38 | 49.97207 | -93.90726 | 34868 ft | 491 kts | 102° |
| 2026-04-15 02:38 | 49.96001 | -93.80297 | 34871 ft | 491 kts | 102° |
| 2026-04-15 02:39 | 49.94794 | -93.69935 | 34869 ft | 491 kts | 102° |
| 2026-04-15 02:39 | 49.93568 | -93.59498 | 34869 ft | 491 kts | 102° |
| 2026-04-15 02:40 | 49.92334 | -93.49077 | 34874 ft | 491 kts | 102° |
| 2026-04-15 02:40 | 49.91087 | -93.38635 | 34874 ft | 491 kts | 102° |
| 2026-04-15 02:41 | 49.89830 | -93.28188 | 34881 ft | 492 kts | 103° |
| 2026-04-15 02:41 | 49.88566 | -93.17767 | 34874 ft | 492 kts | 103° |
| 2026-04-15 02:42 | 49.87299 | -93.07404 | 34867 ft | 492 kts | 103° |
| 2026-04-15 02:42 | 49.86014 | -92.96973 | 34857 ft | 492 kts | 103° |
| 2026-04-15 02:43 | 49.84719 | -92.86537 | 34850 ft | 493 kts | 103° |
| 2026-04-15 02:43 | 49.83385 | -92.76120 | 34848 ft | 492 kts | 107° |
| 2026-04-15 02:44 | 49.80960 | -92.66302 | 34858 ft | 487 kts | 118° |
| 2026-04-15 02:44 | 49.78049 | -92.56833 | 34856 ft | 487 kts | 119° |
| 2026-04-15 02:45 | 49.75156 | -92.47418 | 34869 ft | 488 kts | 119° |
| 2026-04-15 02:45 | 49.72276 | -92.37910 | 34879 ft | 488 kts | 118° |
| 2026-04-15 02:46 | 49.69401 | -92.28381 | 34888 ft | 489 kts | 118° |
| 2026-04-15 02:46 | 49.66520 | -92.18856 | 34899 ft | 490 kts | 119° |
| 2026-04-15 02:47 | 49.63621 | -92.09312 | 34892 ft | 491 kts | 119° |
| 2026-04-15 02:47 | 49.60710 | -91.99777 | 34892 ft | 491 kts | 119° |
| 2026-04-15 02:48 | 49.57785 | -91.90234 | 34888 ft | 492 kts | 119° |
| 2026-04-15 02:48 | 49.54870 | -91.80758 | 34888 ft | 493 kts | 120° |
| 2026-04-15 02:49 | 49.51923 | -91.71216 | 34888 ft | 493 kts | 120° |
| 2026-04-15 02:49 | 49.48966 | -91.61676 | 34890 ft | 494 kts | 120° |
| 2026-04-15 02:50 | 49.45994 | -91.52127 | 34886 ft | 495 kts | 120° |
| 2026-04-15 02:50 | 49.43015 | -91.42592 | 34885 ft | 495 kts | 120° |
| 2026-04-15 02:51 | 49.40024 | -91.33055 | 34899 ft | 496 kts | 120° |
| 2026-04-15 02:51 | 49.37021 | -91.23516 | 34888 ft | 497 kts | 120° |
| 2026-04-15 02:52 | 49.34006 | -91.13977 | 34889 ft | 497 kts | 121° |
| 2026-04-15 02:52 | 49.30982 | -91.04445 | 34886 ft | 498 kts | 121° |
| 2026-04-15 02:53 | 49.27946 | -90.94912 | 34890 ft | 498 kts | 121° |
| 2026-04-15 02:53 | 49.24900 | -90.85382 | 34885 ft | 498 kts | 121° |
| 2026-04-15 02:54 | 49.21865 | -90.75925 | 34885 ft | 499 kts | 121° |
| 2026-04-15 02:54 | 49.18795 | -90.66393 | 34887 ft | 499 kts | 121° |
| 2026-04-15 02:55 | 49.15720 | -90.56882 | 34880 ft | 499 kts | 122° |
| 2026-04-15 02:55 | 49.12633 | -90.47373 | 34887 ft | 500 kts | 122° |
| 2026-04-15 02:56 | 49.09534 | -90.37859 | 34885 ft | 500 kts | 122° |
| 2026-04-15 02:56 | 49.06427 | -90.28357 | 34890 ft | 501 kts | 122° |
| 2026-04-15 02:57 | 49.03833 | -90.20453 | 34884 ft | 501 kts | 122° |
| 2026-04-15 02:57 | 49.00705 | -90.10953 | 34888 ft | 502 kts | 122° |
| 2026-04-15 02:58 | 48.97566 | -90.01455 | 34884 ft | 502 kts | 122° |
| 2026-04-15 02:58 | 48.94417 | -89.91962 | 34887 ft | 503 kts | 123° |
| 2026-04-15 02:59 | 48.91249 | -89.82448 | 34886 ft | 504 kts | 123° |
| 2026-04-15 02:59 | 48.88093 | -89.73006 | 34880 ft | 504 kts | 123° |
| 2026-04-15 03:00 | 48.84906 | -89.63504 | 34888 ft | 505 kts | 123° |
| 2026-04-15 03:00 | 48.81707 | -89.54002 | 34882 ft | 505 kts | 123° |
| 2026-04-15 03:01 | 48.78497 | -89.44503 | 34890 ft | 506 kts | 123° |
| 2026-04-15 03:01 | 48.75270 | -89.34991 | 34892 ft | 507 kts | 124° |
| 2026-04-15 03:02 | 48.72031 | -89.25476 | 34878 ft | 508 kts | 124° |
| 2026-04-15 03:02 | 48.68804 | -89.16025 | 34881 ft | 509 kts | 124° |
| 2026-04-15 03:03 | 48.65465 | -89.06610 | 34881 ft | 505 kts | 129° |
| 2026-04-15 03:03 | 48.61661 | -88.97712 | 34870 ft | 503 kts | 132° |
| 2026-04-15 03:04 | 48.57744 | -88.88947 | 34869 ft | 503 kts | 132° |
| 2026-04-15 03:04 | 48.53842 | -88.80135 | 34866 ft | 505 kts | 132° |
| 2026-04-15 03:05 | 48.49985 | -88.71338 | 34866 ft | 506 kts | 132° |
| 2026-04-15 03:05 | 48.46106 | -88.62474 | 34856 ft | 507 kts | 132° |
| 2026-04-15 03:06 | 48.42218 | -88.53620 | 34866 ft | 507 kts | 132° |
| 2026-04-15 03:06 | 48.38309 | -88.44756 | 34868 ft | 508 kts | 133° |
| 2026-04-15 03:07 | 48.34389 | -88.35898 | 34862 ft | 509 kts | 133° |
| 2026-04-15 03:07 | 48.30475 | -88.27085 | 34867 ft | 509 kts | 133° |
| 2026-04-15 03:08 | 48.26537 | -88.18245 | 34864 ft | 510 kts | 133° |
| 2026-04-15 03:08 | 48.22579 | -88.09390 | 34863 ft | 510 kts | 133° |
| 2026-04-15 03:09 | 48.18615 | -88.00548 | 34862 ft | 511 kts | 134° |
| 2026-04-15 03:09 | 48.14644 | -87.91720 | 34859 ft | 511 kts | 134° |
| 2026-04-15 03:10 | 48.10664 | -87.82901 | 34849 ft | 511 kts | 134° |
| 2026-04-15 03:10 | 48.06703 | -87.74152 | 34854 ft | 511 kts | 134° |
| 2026-04-15 03:11 | 48.02710 | -87.65363 | 34848 ft | 511 kts | 134° |
| 2026-04-15 03:11 | 47.98708 | -87.56580 | 34845 ft | 511 kts | 134° |
| 2026-04-15 03:12 | 47.94705 | -87.47825 | 34844 ft | 511 kts | 134° |
| 2026-04-15 03:12 | 47.90718 | -87.39132 | 34840 ft | 511 kts | 135° |
| 2026-04-15 03:13 | 47.86691 | -87.30381 | 34839 ft | 511 kts | 135° |
| 2026-04-15 03:13 | 47.82656 | -87.21641 | 34839 ft | 511 kts | 135° |
| 2026-04-15 03:14 | 47.78616 | -87.12917 | 34838 ft | 512 kts | 135° |
| 2026-04-15 03:14 | 47.74565 | -87.04197 | 34840 ft | 513 kts | 135° |
| 2026-04-15 03:15 | 47.70525 | -86.95529 | 34837 ft | 513 kts | 135° |
| 2026-04-15 03:15 | 47.66450 | -86.86812 | 34836 ft | 514 kts | 135° |
| 2026-04-15 03:16 | 47.62365 | -86.78102 | 34835 ft | 515 kts | 135° |
| 2026-04-15 03:16 | 47.58258 | -86.69372 | 34831 ft | 515 kts | 135° |
| 2026-04-15 03:17 | 47.54158 | -86.60684 | 34833 ft | 515 kts | 135° |
| 2026-04-15 03:17 | 47.50073 | -86.52054 | 34829 ft | 514 kts | 135° |
| 2026-04-15 03:18 | 47.45969 | -86.43412 | 34833 ft | 513 kts | 135° |
| 2026-04-15 03:18 | 47.41865 | -86.34797 | 34835 ft | 511 kts | 136° |
| 2026-04-15 03:19 | 47.37768 | -86.26223 | 34832 ft | 509 kts | 136° |
| 2026-04-15 03:19 | 47.33683 | -86.17704 | 34830 ft | 508 kts | 136° |
| 2026-04-15 03:20 | 47.29625 | -86.09266 | 34836 ft | 506 kts | 136° |
| 2026-04-15 03:20 | 47.25554 | -86.00827 | 34835 ft | 505 kts | 136° |
| 2026-04-15 03:21 | 47.21478 | -85.92406 | 34836 ft | 504 kts | 136° |
| 2026-04-15 03:21 | 47.15357 | -85.79806 | 34840 ft | 505 kts | 136° |
| 2026-04-15 03:22 | 47.11266 | -85.71418 | 34845 ft | 505 kts | 136° |
| 2026-04-15 03:22 | 47.07191 | -85.63085 | 34845 ft | 506 kts | 136° |
| 2026-04-15 03:23 | 47.03081 | -85.54707 | 34852 ft | 506 kts | 136° |
| 2026-04-15 03:23 | 46.98954 | -85.46318 | 34848 ft | 507 kts | 136° |
| 2026-04-15 03:24 | 46.94821 | -85.37943 | 34844 ft | 508 kts | 136° |
| 2026-04-15 03:24 | 46.90675 | -85.29566 | 34844 ft | 508 kts | 136° |
| 2026-04-15 03:25 | 46.86522 | -85.21201 | 34851 ft | 508 kts | 136° |
| 2026-04-15 03:25 | 46.82364 | -85.12850 | 34849 ft | 508 kts | 136° |
| 2026-04-15 03:26 | 46.78205 | -85.04523 | 34856 ft | 507 kts | 136° |
| 2026-04-15 03:26 | 46.74063 | -84.96254 | 34854 ft | 507 kts | 136° |
| 2026-04-15 03:27 | 46.69899 | -84.87965 | 34859 ft | 506 kts | 136° |
| 2026-04-15 03:27 | 46.65728 | -84.79690 | 34867 ft | 505 kts | 136° |
| 2026-04-15 03:28 | 46.61566 | -84.71455 | 34870 ft | 505 kts | 137° |
| 2026-04-15 03:28 | 46.57399 | -84.63234 | 34870 ft | 504 kts | 137° |
| 2026-04-15 03:29 | 46.53259 | -84.55092 | 34840 ft | 503 kts | 137° |
| 2026-04-15 03:29 | 46.49098 | -84.46931 | 34842 ft | 503 kts | 137° |
| 2026-04-15 03:30 | 46.44932 | -84.38782 | 34864 ft | 502 kts | 137° |
| 2026-04-15 03:30 | 46.40759 | -84.30645 | 34860 ft | 502 kts | 137° |
| 2026-04-15 03:31 | 46.36573 | -84.22564 | 34867 ft | 501 kts | 138° |
| 2026-04-15 03:31 | 46.32368 | -84.14499 | 34881 ft | 502 kts | 138° |
| 2026-04-15 03:32 | 46.28159 | -84.06442 | 34878 ft | 502 kts | 138° |
| 2026-04-15 03:32 | 46.23968 | -83.98433 | 34887 ft | 503 kts | 138° |
| 2026-04-15 03:33 | 46.19773 | -83.90438 | 34890 ft | 504 kts | 138° |
| 2026-04-15 03:33 | 46.15532 | -83.82375 | 34898 ft | 505 kts | 139° |
| 2026-04-15 03:34 | 46.11272 | -83.74303 | 34896 ft | 506 kts | 139° |
| 2026-04-15 03:34 | 46.06999 | -83.66229 | 34898 ft | 507 kts | 139° |
| 2026-04-15 03:35 | 46.02717 | -83.58159 | 34899 ft | 508 kts | 139° |
| 2026-04-15 03:35 | 45.98421 | -83.50087 | 34898 ft | 508 kts | 139° |
| 2026-04-15 03:36 | 45.94133 | -83.42053 | 34900 ft | 509 kts | 139° |
| 2026-04-15 03:36 | 45.89816 | -83.33988 | 34900 ft | 509 kts | 139° |
| 2026-04-15 03:37 | 45.85489 | -83.25927 | 34902 ft | 510 kts | 139° |
| 2026-04-15 03:37 | 45.81151 | -83.17868 | 34914 ft | 510 kts | 139° |
| 2026-04-15 03:38 | 45.76834 | -83.09871 | 34911 ft | 509 kts | 139° |
| 2026-04-15 03:38 | 45.72727 | -83.02285 | 34914 ft | 509 kts | 139° |
| 2026-04-15 03:39 | 45.68384 | -82.94284 | 34909 ft | 509 kts | 139° |
| 2026-04-15 03:39 | 45.64041 | -82.86307 | 34906 ft | 508 kts | 139° |
| 2026-04-15 03:40 | 45.59693 | -82.78342 | 34905 ft | 508 kts | 139° |
| 2026-04-15 03:40 | 45.55346 | -82.70401 | 34911 ft | 507 kts | 139° |
| 2026-04-15 03:41 | 45.50997 | -82.62481 | 34911 ft | 507 kts | 139° |
| 2026-04-15 03:41 | 45.46640 | -82.54565 | 34912 ft | 507 kts | 139° |
| 2026-04-15 03:42 | 45.42282 | -82.46668 | 34916 ft | 507 kts | 139° |
| 2026-04-15 03:42 | 45.39963 | -82.42970 | 34905 ft | 494 kts | 148° |
| 2026-04-15 03:42 | 45.37428 | -82.39871 | 34910 ft | 480 kts | 157° |
| 2026-04-15 03:43 | 45.31855 | -82.34936 | 34910 ft | 471 kts | 162° |
| 2026-04-15 03:43 | 45.26230 | -82.30120 | 34910 ft | 474 kts | 161° |
| 2026-04-15 03:44 | 45.20578 | -82.25223 | 34914 ft | 477 kts | 161° |
| 2026-04-15 03:44 | 45.15865 | -82.21110 | 34917 ft | 480 kts | 160° |
| 2026-04-15 03:45 | 45.10169 | -82.16135 | 34916 ft | 482 kts | 160° |
| 2026-04-15 03:45 | 45.04439 | -82.11141 | 34917 ft | 484 kts | 160° |
| 2026-04-15 03:46 | 44.98686 | -82.06142 | 34912 ft | 485 kts | 160° |
| 2026-04-15 03:46 | 44.92956 | -82.01174 | 34913 ft | 486 kts | 160° |
| 2026-04-15 03:47 | 44.87192 | -81.96190 | 34846 ft | 486 kts | 160° |
| 2026-04-15 03:47 | 44.84281 | -81.93686 | 34270 ft | 492 kts | 160° |
| 2026-04-15 03:47 | 44.81364 | -81.91174 | 33631 ft | 490 kts | 160° |
| 2026-04-15 03:48 | 44.78453 | -81.88666 | 32914 ft | 490 kts | 159° |
| 2026-04-15 03:48 | 44.75548 | -81.86165 | 32234 ft | 490 kts | 159° |
| 2026-04-15 03:48 | 44.72638 | -81.83665 | 31605 ft | 488 kts | 159° |
| 2026-04-15 03:48 | 44.69758 | -81.81187 | 31156 ft | 482 kts | 158° |
| 2026-04-15 03:49 | 44.66908 | -81.78738 | 30669 ft | 477 kts | 158° |
| 2026-04-15 03:49 | 44.64083 | -81.76317 | 30185 ft | 473 kts | 158° |
| 2026-04-15 03:49 | 44.61324 | -81.73957 | 29681 ft | 469 kts | 158° |
| 2026-04-15 03:49 | 44.58552 | -81.71589 | 29140 ft | 464 kts | 158° |
| 2026-04-15 03:50 | 44.55811 | -81.69252 | 28651 ft | 458 kts | 158° |
| 2026-04-15 03:50 | 44.53097 | -81.66939 | 28173 ft | 453 kts | 158° |
| 2026-04-15 03:50 | 44.50417 | -81.64659 | 27682 ft | 449 kts | 158° |
| 2026-04-15 03:50 | 44.47755 | -81.62398 | 27189 ft | 445 kts | 157° |
| 2026-04-15 03:51 | 44.45122 | -81.60165 | 26726 ft | 441 kts | 157° |
| 2026-04-15 03:51 | 44.42508 | -81.57949 | 26259 ft | 437 kts | 157° |
| 2026-04-15 03:51 | 44.39920 | -81.55758 | 25792 ft | 433 kts | 156° |
| 2026-04-15 03:51 | 44.37349 | -81.53584 | 25341 ft | 430 kts | 156° |
| 2026-04-15 03:52 | 44.34798 | -81.51428 | 24886 ft | 427 kts | 156° |
| 2026-04-15 03:52 | 44.32261 | -81.49286 | 24430 ft | 424 kts | 156° |
| 2026-04-15 03:52 | 44.29742 | -81.47163 | 23982 ft | 422 kts | 155° |
| 2026-04-15 03:52 | 44.27268 | -81.45078 | 23515 ft | 420 kts | 155° |
| 2026-04-15 03:53 | 44.24775 | -81.42980 | 22992 ft | 417 kts | 155° |
| 2026-04-15 03:53 | 44.22302 | -81.40900 | 22510 ft | 413 kts | 154° |
| 2026-04-15 03:53 | 44.19852 | -81.38840 | 22040 ft | 409 kts | 154° |
| 2026-04-15 03:53 | 44.17422 | -81.36799 | 21593 ft | 406 kts | 154° |
| 2026-04-15 03:54 | 44.15014 | -81.34780 | 21156 ft | 402 kts | 154° |
| 2026-04-15 03:54 | 44.12629 | -81.32781 | 20708 ft | 398 kts | 154° |
| 2026-04-15 03:54 | 44.10262 | -81.30800 | 20272 ft | 395 kts | 154° |
| 2026-04-15 03:55 | 44.05581 | -81.26888 | 19411 ft | 390 kts | 153° |
| 2026-04-15 03:55 | 44.03263 | -81.24953 | 18992 ft | 387 kts | 153° |
| 2026-04-15 03:55 | 44.00955 | -81.23029 | 18559 ft | 385 kts | 153° |
| 2026-04-15 03:55 | 43.98694 | -81.21145 | 18127 ft | 383 kts | 153° |
| 2026-04-15 03:56 | 43.96419 | -81.19251 | 17644 ft | 380 kts | 153° |
| 2026-04-15 03:56 | 43.94155 | -81.17368 | 17219 ft | 377 kts | 153° |
| 2026-04-15 03:56 | 43.91924 | -81.15512 | 16798 ft | 372 kts | 153° |
| 2026-04-15 03:56 | 43.89713 | -81.13676 | 16385 ft | 369 kts | 153° |
| 2026-04-15 03:57 | 43.87521 | -81.11857 | 15980 ft | 365 kts | 153° |
| 2026-04-15 03:57 | 43.85350 | -81.10057 | 15573 ft | 362 kts | 153° |
| 2026-04-15 03:57 | 43.83194 | -81.08272 | 15176 ft | 359 kts | 153° |
| 2026-04-15 03:57 | 43.81056 | -81.06503 | 14764 ft | 356 kts | 153° |
| 2026-04-15 03:58 | 43.78940 | -81.04753 | 14367 ft | 353 kts | 154° |
| 2026-04-15 03:58 | 43.76836 | -81.03016 | 13971 ft | 350 kts | 154° |
| 2026-04-15 03:58 | 43.74776 | -81.01315 | 13572 ft | 348 kts | 154° |
| 2026-04-15 03:58 | 43.72709 | -80.99611 | 13145 ft | 345 kts | 153° |
| 2026-04-15 03:59 | 43.70656 | -80.97920 | 12747 ft | 342 kts | 153° |
| 2026-04-15 03:59 | 43.68620 | -80.96243 | 12355 ft | 339 kts | 153° |
| 2026-04-15 03:59 | 43.66599 | -80.94581 | 11963 ft | 337 kts | 153° |
| 2026-04-15 03:59 | 43.64593 | -80.92932 | 11577 ft | 335 kts | 153° |
| 2026-04-15 04:00 | 43.62597 | -80.91293 | 11194 ft | 333 kts | 153° |
| 2026-04-15 04:00 | 43.60613 | -80.89665 | 10813 ft | 331 kts | 153° |
| 2026-04-15 04:00 | 43.58652 | -80.88055 | 10654 ft | 322 kts | 153° |
| 2026-04-15 04:00 | 43.56757 | -80.86499 | 10509 ft | 313 kts | 153° |
| 2026-04-15 04:01 | 43.54910 | -80.84985 | 10373 ft | 304 kts | 153° |
| 2026-04-15 04:01 | 43.53119 | -80.83517 | 10244 ft | 296 kts | 153° |
| 2026-04-15 04:01 | 43.51371 | -80.82088 | 10126 ft | 288 kts | 153° |
| 2026-04-15 04:01 | 43.49671 | -80.80698 | 10010 ft | 280 kts | 153° |
| 2026-04-15 04:02 | 43.48008 | -80.79341 | 9780 ft | 277 kts | 153° |
| 2026-04-15 04:02 | 43.46354 | -80.77992 | 9506 ft | 275 kts | 153° |
| 2026-04-15 04:02 | 43.44712 | -80.76654 | 9242 ft | 273 kts | 153° |
| 2026-04-15 04:02 | 43.43084 | -80.75327 | 8983 ft | 271 kts | 154° |
| 2026-04-15 04:03 | 43.41460 | -80.74005 | 8720 ft | 270 kts | 154° |
| 2026-04-15 04:03 | 43.39873 | -80.72712 | 8465 ft | 268 kts | 154° |
| 2026-04-15 04:03 | 43.38273 | -80.71410 | 8208 ft | 267 kts | 154° |
| 2026-04-15 04:03 | 43.36679 | -80.70114 | 7937 ft | 266 kts | 154° |
| 2026-04-15 04:04 | 43.35091 | -80.68824 | 7670 ft | 264 kts | 154° |
| 2026-04-15 04:04 | 43.33512 | -80.67541 | 7406 ft | 263 kts | 154° |
| 2026-04-15 04:04 | 43.31939 | -80.66265 | 7151 ft | 262 kts | 154° |
| 2026-04-15 04:04 | 43.30545 | -80.64639 | 6980 ft | 266 kts | 130° |
| 2026-04-15 04:05 | 43.29540 | -80.62504 | 6938 ft | 270 kts | 126° |
| 2026-04-15 04:05 | 43.28526 | -80.60262 | 6885 ft | 281 kts | 126° |
| 2026-04-15 04:05 | 43.27485 | -80.57958 | 6787 ft | 285 kts | 126° |
| 2026-04-15 04:05 | 43.26440 | -80.55647 | 6718 ft | 285 kts | 126° |
| 2026-04-15 04:06 | 43.25391 | -80.53337 | 6645 ft | 284 kts | 126° |
| 2026-04-15 04:06 | 43.24344 | -80.51042 | 6581 ft | 284 kts | 126° |
| 2026-04-15 04:06 | 43.23296 | -80.48749 | 6510 ft | 283 kts | 126° |
| 2026-04-15 04:06 | 43.22251 | -80.46468 | 6446 ft | 282 kts | 126° |
| 2026-04-15 04:07 | 43.21209 | -80.44195 | 6383 ft | 281 kts | 126° |
| 2026-04-15 04:07 | 43.20170 | -80.41934 | 6320 ft | 280 kts | 126° |
| 2026-04-15 04:07 | 43.19129 | -80.39672 | 6259 ft | 279 kts | 126° |
| 2026-04-15 04:07 | 43.18105 | -80.37449 | 6193 ft | 280 kts | 126° |
| 2026-04-15 04:08 | 43.17064 | -80.35194 | 6126 ft | 279 kts | 126° |
| 2026-04-15 04:08 | 43.16026 | -80.32943 | 6059 ft | 279 kts | 126° |
| 2026-04-15 04:08 | 43.14986 | -80.30688 | 6002 ft | 279 kts | 126° |
| 2026-04-15 04:08 | 43.13947 | -80.28438 | 5940 ft | 279 kts | 126° |
| 2026-04-15 04:09 | 43.12908 | -80.26189 | 5878 ft | 279 kts | 126° |
| 2026-04-15 04:09 | 43.11883 | -80.23972 | 5811 ft | 279 kts | 126° |
| 2026-04-15 04:09 | 43.10846 | -80.21731 | 5749 ft | 278 kts | 126° |
| 2026-04-15 04:09 | 43.09811 | -80.19492 | 5689 ft | 278 kts | 126° |
| 2026-04-15 04:10 | 43.08775 | -80.17257 | 5630 ft | 278 kts | 126° |
| 2026-04-15 04:10 | 43.07741 | -80.15029 | 5558 ft | 277 kts | 126° |
| 2026-04-15 04:10 | 43.06707 | -80.12802 | 5502 ft | 276 kts | 125° |
| 2026-04-15 04:10 | 43.05788 | -80.10506 | 5421 ft | 278 kts | 109° |
| 2026-04-15 04:11 | 43.05538 | -80.07894 | 5387 ft | 278 kts | 94° |
| 2026-04-15 04:11 | 43.05469 | -80.05237 | 5325 ft | 280 kts | 93° |
| 2026-04-15 04:11 | 43.05403 | -80.02574 | 5258 ft | 280 kts | 93° |
| 2026-04-15 04:11 | 43.05331 | -79.99925 | 5197 ft | 278 kts | 93° |
| 2026-04-15 04:12 | 43.05253 | -79.97315 | 5117 ft | 269 kts | 94° |
| 2026-04-15 04:12 | 43.05174 | -79.94799 | 5044 ft | 260 kts | 94° |
| 2026-04-15 04:12 | 43.05097 | -79.92377 | 4981 ft | 250 kts | 94° |
| 2026-04-15 04:12 | 43.05022 | -79.90058 | 4846 ft | 245 kts | 94° |
| 2026-04-15 04:13 | 43.04946 | -79.87744 | 4682 ft | 240 kts | 94° |
| 2026-04-15 04:13 | 43.04873 | -79.85475 | 4528 ft | 238 kts | 94° |
| 2026-04-15 04:13 | 43.04798 | -79.83212 | 4379 ft | 239 kts | 94° |
| 2026-04-15 04:13 | 43.04722 | -79.80939 | 4222 ft | 240 kts | 94° |
| 2026-04-15 04:14 | 43.04646 | -79.78655 | 4064 ft | 241 kts | 94° |
| 2026-04-15 04:14 | 43.04636 | -79.76357 | 3883 ft | 243 kts | 81° |
| 2026-04-15 04:14 | 43.05343 | -79.74307 | 3709 ft | 239 kts | 45° |
| 2026-04-15 04:14 | 43.06678 | -79.73084 | 3561 ft | 233 kts | 20° |
| 2026-04-15 04:15 | 43.08204 | -79.72366 | 3419 ft | 233 kts | 15° |
| 2026-04-15 04:15 | 43.09767 | -79.71742 | 3258 ft | 234 kts | 10° |
| 2026-04-15 04:15 | 43.11341 | -79.71886 | 3066 ft | 224 kts | 331° |
| 2026-04-15 04:15 | 43.12429 | -79.73240 | 2943 ft | 206 kts | 302° |
| 2026-04-15 04:16 | 43.13234 | -79.74840 | 2783 ft | 202 kts | 295° |
| 2026-04-15 04:16 | 43.13781 | -79.76583 | 2653 ft | 197 kts | 288° |
| 2026-04-15 04:16 | 43.14220 | -79.78343 | 2516 ft | 194 kts | 285° |
| 2026-04-15 04:16 | 43.14619 | -79.80098 | 2373 ft | 192 kts | 285° |
| 2026-04-15 04:17 | 43.15015 | -79.81858 | 2247 ft | 196 kts | 285° |
| 2026-04-15 04:17 | 43.15416 | -79.83634 | 2019 ft | 197 kts | 285° |
| 2026-04-15 04:17 | 43.15814 | -79.85390 | 1743 ft | 188 kts | 285° |
| 2026-04-15 04:17 | 43.16185 | -79.87028 | 1543 ft | 171 kts | 287° |
| 2026-04-15 04:18 | 43.16519 | -79.88517 | 1354 ft | 151 kts | 289° |
| 2026-04-15 04:18 | 43.16803 | -79.89832 | 1166 ft | 141 kts | 289° |
| 2026-04-15 04:18 | 43.17093 | -79.91136 | 935 ft | 145 kts | 290° |
| 2026-04-15 04:18 | 43.17405 | -79.92452 | 780 ft | 141 kts | 289° |
| 2026-04-15 04:19 | 43.17663 | -79.93561 | 770 ft | 95 kts | 288° |
| 2026-04-15 04:19 | 43.17798 | -79.94155 | 777 ft | 47 kts | 286° |
| 2026-04-15 04:19 | 43.17889 | -79.94558 | 780 ft | 42 kts | 287° |
| 2026-04-15 04:19 | 43.17974 | -79.94931 | 779 ft | 39 kts | 288° |
| 2026-04-15 04:20 | 43.18040 | -79.95221 | 785 ft | 14 kts | 287° |
| 2026-04-15 04:20 | 43.18042 | -79.95230 | 785 ft | 2 kts | 287° |
| 2026-04-15 04:20 | 43.18033 | -79.95282 | 785 ft | 4 kts | 207° |
| 2026-04-15 04:20 | 43.18015 | -79.95260 | 785 ft | 4 kts | 90° |
| 2026-04-15 04:21 | 43.18024 | -79.95166 | 783 ft | 19 kts | 95° |
| 2026-04-15 04:21 | 43.17971 | -79.94917 | 779 ft | 31 kts | 108° |
| 2026-04-15 04:21 | 43.17910 | -79.94643 | 778 ft | 29 kts | 107° |
| 2026-04-15 04:21 | 43.17850 | -79.94385 | 779 ft | 28 kts | 108° |
| 2026-04-15 04:22 | 43.17796 | -79.94140 | 777 ft | 26 kts | 107° |
| 2026-04-15 04:22 | 43.17744 | -79.93913 | 774 ft | 24 kts | 108° |
| 2026-04-15 04:22 | 43.17698 | -79.93706 | 773 ft | 16 kts | 108° |
| 2026-04-15 04:22 | 43.17648 | -79.93656 | 771 ft | 9 kts | 184° |
| 2026-04-15 04:23 | 43.17590 | -79.93672 | 771 ft | 8 kts | 196° |
| 2026-04-15 04:23 | 43.17514 | -79.93665 | 771 ft | 14 kts | 143° |
| 2026-04-15 04:23 | 43.17481 | -79.93546 | 773 ft | 13 kts | 107° |
| 2026-04-15 04:23 | 43.17445 | -79.93389 | 773 ft | 23 kts | 107° |
| 2026-04-15 04:24 | 43.17396 | -79.93169 | 775 ft | 20 kts | 107° |
| 2026-04-15 04:24 | 43.17301 | -79.93048 | 775 ft | 19 kts | 150° |
| 2026-04-15 04:24 | 43.17188 | -79.92959 | 776 ft | 18 kts | 151° |
| 2026-04-15 04:24 | 43.17077 | -79.92872 | 772 ft | 19 kts | 150° |
| 2026-04-15 04:25 | 43.16931 | -79.92760 | 774 ft | 25 kts | 149° |
| 2026-04-15 04:25 | 43.16787 | -79.92644 | 779 ft | 21 kts | 150° |
| 2026-04-15 04:25 | 43.16666 | -79.92551 | 781 ft | 18 kts | 149° |
| 2026-04-15 04:25 | 43.16569 | -79.92506 | 781 ft | 14 kts | 197° |
| 2026-04-15 04:26 | 43.16515 | -79.92587 | 780 ft | 6 kts | 257° |
| 2026-04-15 04:26 | 43.16519 | -79.92648 | 779 ft | 7 kts | 276° |
| 2026-04-15 04:26 | 43.16506 | -79.92707 | 779 ft | 7 kts | 239° |
| 2026-04-15 04:26 | 43.16469 | -79.92737 | 778 ft | 7 kts | 195° |
| 2026-04-15 04:27 | 43.16453 | -79.92744 | 778 ft | 0 kts | 196° |